Latest Weather Observations for Goulburn Airport

IDN60901

Issued at 2:31 am EDT Monday 17 December 2018 (issued every 10 minutes, with the page automatically refreshed every 10 minutes)

About weather observations | Map of Canberra area stations | Latest observations for Canberra area | Other Formats
Station Details ID: 070330 Name: GOULBURN AIRPORT AWS Lat: -34.81 Lon: 149.73 Height: 640.0 m
Data from the previous 72 hours. | See also: Recent months at Goulburn Airport
Date/Time
EDT
Temp
°C
App
Temp
°C
Dew
Point
°C
Rel
Hum
%
Delta-T
°C
Wind Press
QNH
hPa
Press
MSL
hPa
Rain since
9am
mm
Dir  Spd
km/h
Gust
km/h
Spd
kts
Gust
kts
17/02:30am 12.3 12.6 10.9 91 0.8 CALM 0 0 0 0 1010.4 1008.0 0.0
17/02:00am 13.2 13.6 11.4 89 1.0 CALM 0 0 0 0 1010.5 1008.1 0.0
17/01:30am 13.4 13.8 11.3 87 1.1 CALM 0 0 0 0 1010.5 1008.1 0.0
17/01:00am 13.7 14.3 11.8 88 1.1 CALM 0 0 0 0 1010.6 1008.2 0.0
17/12:30am 14.2 14.5 11.0 81 1.7 CALM 0 0 0 0 1010.6 1008.2 0.0
17/12:00am 14.4 14.4 11.0 80 1.9 E 2 7 1 4 1010.7 1008.3 0.0
 
Date/Time
EDT
Temp
°C
App
Temp
°C
Dew
Point
°C
Rel
Hum
%
Delta-T
°C
Wind Press
QNH
hPa
Press
MSL
hPa
Rain since
9am
mm
Dir  Spd
km/h
Gust
km/h
Spd
kts
Gust
kts
16/11:30pm 16.1 16.4 10.8 71 2.9 CALM 0 0 0 0 1010.5 1008.1 0.0
16/11:00pm 16.5 16.2 11.4 72 2.9 WSW 4 7 2 4 1010.4 1008.0 0.0
16/10:30pm 17.1 14.3 11.4 69 3.2 WNW 17 19 9 10 1010.0 1007.5 0.0
16/10:00pm 17.8 15.5 11.6 67 3.5 WNW 15 17 8 9 1009.9 1007.4 0.0
16/09:30pm 17.3 17.9 11.8 70 3.1 CALM 0 0 0 0 1009.7 1007.3 0.0
16/09:00pm 18.5 17.9 11.6 64 3.9 WSW 6 7 3 4 1009.3 1006.9 0.0
16/08:30pm 19.7 18.8 11.2 58 4.8 WSW 7 9 4 5 1009.1 1006.7 0.0
16/08:00pm 21.0 19.3 11.1 53 5.6 WSW 11 13 6 7 1008.9 1006.4 0.0
16/07:30pm 22.9 19.7 10.0 44 7.3 WSW 17 22 9 12 1008.6 1006.1 0.0
16/07:00pm 24.8 21.6 9.9 39 8.5 W 17 24 9 13 1008.1 1005.7 0.0
16/06:30pm 25.1 20.4 9.4 37 8.8 WNW 24 30 13 16 1007.9 1005.5 0.0
16/06:00pm 25.5 20.2 8.5 34 9.5 WNW 26 33 14 18 1007.5 1005.0 0.0
16/05:30pm 26.6 20.6 8.6 32 10.1 WNW 30 43 16 23 1007.2 1004.7 0.0
16/05:00pm 26.9 19.8 7.9 30 10.5 NW 35 46 19 25 1007.3 1004.8 0.0
16/04:30pm 26.7 19.6 8.2 31 10.3 NW 35 46 19 25 1007.4 1004.9 0.0
16/04:00pm 26.2 19.1 8.2 32 10.0 NW 35 44 19 24 1007.7 1005.3 0.0
16/03:35pm 26.5 20.6 8.9 33 9.9 WNW 30 48 16 26 1007.8 1005.4 0.0
16/03:30pm 26.4 20.0 8.4 32 10.0 WNW 32 43 17 23 1008.0 1005.6 0.0
16/03:00pm 27.1 20.5 9.9 34 9.9 NW 35 46 19 25 1008.0 1005.6 0.0
16/02:30pm 26.9 20.4 8.8 32 10.2 NW 33 44 18 24 1007.9 1005.5 0.0
16/02:11pm 27.3 21.8 9.2 32 10.3 NNW 28 46 15 25 1008.0 1005.6 0.0
16/02:00pm 26.3 21.0 8.3 32 10.0 NNW 26 37 14 20 1008.1 1005.7 0.0
16/01:30pm 26.3 20.9 7.8 31 10.2 NNW 26 35 14 19 1008.3 1005.8 0.0
16/01:00pm 26.8 21.5 8.3 31 10.3 NNW 26 41 14 22 1008.4 1005.9 0.0
16/12:30pm 26.8 21.1 8.3 31 10.3 NNW 28 37 15 20 1008.6 1006.1 0.0
16/12:00pm 26.6 20.2 8.6 32 10.1 NNW 32 41 17 22 1008.8 1006.3 0.0
16/11:30am 27.0 20.3 8.0 30 10.5 NNW 33 46 18 25 1008.9 1006.4 0.0
16/11:00am 26.7 20.2 8.2 31 10.3 NNW 32 50 17 27 1009.2 1006.8 0.0
16/10:39am 25.8 19.0 6.9 30 10.2 N 32 50 17 27 1009.2 1006.8 0.0
16/10:30am 25.9 19.6 7.5 31 10.1 N 30 43 16 23 1009.3 1006.9 0.0
16/10:14am 26.6 19.7 6.6 28 10.8 N 32 50 17 27 1009.2 1006.8 0.0
16/10:00am 26.1 19.3 6.7 29 10.5 N 32 43 17 23 1009.4 1007.0 0.0
16/09:30am 25.9 20.0 7.5 31 10.1 N 28 39 15 21 1009.6 1007.2 0.0
16/09:00am 24.4 19.4 9.6 39 8.3 N 26 32 14 17 1009.6 1007.2 0.0
16/08:30am 22.9 19.6 11.6 49 6.5 N 20 26 11 14 1009.7 1007.3 0.0
16/08:00am 21.2 18.3 12.9 59 4.9 N 20 26 11 14 1009.4 1007.0 0.0
16/07:30am 19.4 19.6 15.7 79 2.3 N 9 15 5 8 1009.3 1006.9 0.0
16/07:00am 16.1 18.1 15.9 99 0.1 CALM 0 0 0 0 1009.2 1006.8 0.0
16/06:30am 15.2 16.8 15.0 99 0.1 CALM 0 0 0 0 1008.8 1006.3 0.0
16/06:00am 14.1 15.0 13.9 99 0.1 WNW 2 7 1 4 1008.6 1006.1 0.0
16/05:30am 14.1 15.0 13.9 99 0.1 WNW 2 7 1 4 1008.5 1006.0 0.0
16/05:24am 14.2 14.1 14.0 99 0.1 W 7 9 4 5 1008.4 1005.9 0.0
16/05:00am 13.7 14.8 13.5 99 0.1 CALM 0 0 0 0 1008.1 1005.7 0.0
16/04:30am 13.9 15.0 13.6 98 0.2 CALM 0 0 0 0 1008.0 1005.6 0.0
16/04:16am 14.2 15.4 13.9 98 0.2 CALM 0 0 0 0 1007.9 1005.5 0.0
16/04:00am 14.9 16.4 14.7 99 0.1 CALM 0 0 0 0 1007.7 1005.3 0.0
16/03:30am 14.1 14.4 13.5 96 0.3 WNW 4 9 2 5 1007.7 1005.3 0.0
16/03:00am 14.6 15.7 13.6 94 0.6 CALM 0 0 0 0 1007.7 1005.3 0.0
16/02:30am 15.9 17.7 15.4 97 0.3 CALM 0 0 0 0 1007.8 1005.4 0.0
16/02:00am 15.6 15.8 14.3 92 0.8 WSW 6 7 3 4 1007.8 1005.4 0.0
16/01:30am 17.3 17.5 15.8 91 0.9 NE 9 11 5 6 1008.0 1005.6 0.0
16/01:00am 17.6 16.8 16.1 91 0.9 NE 15 17 8 9 1008.0 1005.6 0.0
16/12:30am 17.9 17.1 16.2 90 1.0 NNE 15 20 8 11 1008.0 1005.6 0.0
16/12:00am 18.0 17.5 15.8 87 1.3 NNE 13 19 7 10 1008.0 1005.6 0.0
 
Date/Time
EDT
Temp
°C
App
Temp
°C
Dew
Point
°C
Rel
Hum
%
Delta-T
°C
Wind Press
QNH
hPa
Press
MSL
hPa
Rain since
9am
mm
Dir  Spd
km/h
Gust
km/h
Spd
kts
Gust
kts
15/11:30pm 18.5 16.9 15.9 85 1.6 NE 19 28 10 15 1008.3 1005.8 0.0
15/11:00pm 18.9 17.7 16.0 83 1.8 NE 17 24 9 13 1008.5 1006.0 0.0
15/10:30pm 18.7 19.3 15.8 83 1.8 NNE 7 9 4 5 1008.7 1006.2 0.0
15/10:00pm 19.1 19.0 16.0 82 1.9 NE 11 15 6 8 1008.7 1006.2 0.0
15/09:30pm 19.4 20.1 16.2 82 2.0 NNE 7 9 4 5 1008.4 1005.9 0.0
15/09:00pm 19.6 20.0 16.4 82 2.0 NE 9 13 5 7 1008.0 1005.6 0.0
15/08:30pm 19.9 21.3 16.3 80 2.2 ENE 4 13 2 7 1007.7 1005.3 0.0
15/08:00pm 20.5 20.1 16.3 77 2.6 ENE 13 19 7 10 1007.6 1005.2 0.0
15/07:30pm 21.8 20.6 16.1 70 3.5 E 17 22 9 12 1006.9 1004.4 0.0
15/07:00pm 24.0 22.1 14.1 54 6.0 ENE 17 22 9 12 1006.2 1003.8 0.0
15/06:30pm 25.3 23.2 8.3 34 9.4 W 9 13 5 7 1005.5 1003.0 0.0
15/06:00pm 26.3 22.2 7.8 31 10.2 W 19 28 10 15 1005.3 1002.8 0.0
15/05:30pm 26.4 21.0 7.9 31 10.2 WNW 26 33 14 18 1004.8 1002.4 0.0
15/05:00pm 26.8 22.2 9.6 34 9.8 NNW 24 35 13 19 1004.7 1002.2 0.0
15/04:30pm 27.6 23.4 9.9 33 10.2 NW 22 32 12 17 1005.1 1002.6 0.0
15/04:00pm 27.1 23.6 10.8 36 9.5 NNW 20 30 11 16 1005.4 1002.9 0.0
15/03:30pm 26.6 22.3 10.7 37 9.2 NNW 24 37 13 20 1005.4 1002.9 0.0
15/03:00pm 27.6 24.6 12.0 38 9.3 NNW 19 26 10 14 1006.1 1003.6 0.0
15/02:30pm 26.2 20.8 10.8 38 8.9 NNW 30 43 16 23 1006.4 1004.0 0.0
15/02:23pm 26.5 21.2 9.8 35 9.5 NNW 28 48 15 26 1006.4 1004.0 0.0
15/02:00pm 25.7 23.8 12.9 45 7.7 N 15 30 8 16 1007.1 1004.6 0.0
15/01:30pm 24.6 23.6 15.5 57 5.6 NE 15 26 8 14 1007.5 1005.0 0.0
15/01:00pm 25.6 25.0 15.6 54 6.3 NNE 13 24 7 13 1007.6 1005.2 0.0
15/12:30pm 24.7 23.4 15.9 58 5.5 NE 17 24 9 13 1007.9 1005.5 0.0
15/12:00pm 24.4 22.2 14.5 54 6.1 ENE 19 30 10 16 1008.4 1005.9 0.0
15/11:30am 24.4 22.9 15.3 57 5.6 NE 17 26 9 14 1008.6 1006.1 0.0
15/11:00am 23.8 22.1 14.8 57 5.5 NE 17 28 9 15 1008.9 1006.4 0.0
15/10:30am 23.8 20.8 12.4 48 6.7 N 20 35 11 19 1008.9 1006.4 0.0
15/10:00am 22.0 21.1 14.9 64 4.3 NNW 13 17 7 9 1008.9 1006.4 0.0
15/09:30am 22.5 21.0 15.4 64 4.4 NNE 17 26 9 14 1008.8 1006.3 0.0
15/09:00am 21.1 20.0 16.3 74 3.0 NE 17 20 9 11 1008.9 1006.4 7.4
15/08:30am 20.2 19.0 17.0 82 2.0 NE 19 22 10 12 1008.8 1006.3 7.4
15/08:00am 19.4 18.0 17.0 86 1.5 NE 20 28 11 15 1008.6 1006.1 7.4
15/07:30am 18.9 18.1 17.0 89 1.2 ENE 17 20 9 11 1008.0 1005.6 7.4
15/07:02am 18.6 18.4 16.8 89 1.1 NE 13 22 7 12 1007.8 1005.4 7.4
15/07:00am 18.7 19.0 17.0 90 1.1 NE 11 17 6 9 1007.8 1005.4 7.4
15/06:30am 18.0 20.0 17.0 94 0.6 ENE 2 9 1 5 1007.4 1004.9 7.4
15/06:00am 17.4 19.6 16.6 95 0.5 CALM 0 7 0 4 1006.9 1004.4 7.4
15/05:30am 17.4 18.3 16.6 95 0.5 E 7 11 4 6 1006.6 1004.1 7.4
15/05:00am 17.8 19.0 16.8 94 0.6 ENE 6 11 3 6 1006.4 1004.0 7.4
15/04:30am 17.7 19.7 16.9 95 0.5 NE 2 7 1 4 1006.4 1004.0 7.4
15/04:23am 17.8 18.5 17.0 95 0.5 NE 9 13 5 7 1006.3 1003.9 7.4
15/04:00am 17.8 17.7 17.0 95 0.5 ENE 13 17 7 9 1006.1 1003.6 7.4
15/03:42am 17.6 17.9 17.0 96 0.4 NE 11 13 6 7 1006.2 1003.8 7.4
15/03:30am 17.7 17.7 17.1 96 0.4 ENE 13 15 7 8 1006.1 1003.6 7.4
15/03:21am 17.7 18.1 17.2 97 0.3 ENE 11 15 6 8 1006.1 1003.6 7.4
15/03:11am 17.6 18.3 17.1 97 0.3 ENE 9 11 5 6 1006.1 1003.6 7.4
15/03:08am 17.6 18.3 17.0 96 0.4 ENE 9 13 5 7 1006.1 1003.6 7.4
15/03:00am 17.6 17.9 17.0 96 0.4 ENE 11 15 6 8 1006.1 1003.6 7.4
15/02:30am 17.9 19.4 17.6 98 0.2 ENE 6 9 3 5 1006.6 1004.1 7.4
15/02:00am 17.7 18.8 17.2 97 0.3 E 7 9 4 5 1006.8 1004.3 7.4
15/01:32am 17.8 19.1 17.2 96 0.4 ENE 6 9 3 5 1007.0 1004.5 7.4
15/01:30am 17.8 19.1 17.2 96 0.4 ENE 6 9 3 5 1006.9 1004.4 7.4
15/01:22am 17.7 18.4 17.1 96 0.4 ENE 9 13 5 7 1006.9 1004.4 7.4
15/01:00am 17.7 17.7 17.2 97 0.3 NE 13 19 7 10 1007.2 1004.7 7.4
15/12:30am 17.6 17.2 17.1 97 0.3 ENE 15 20 8 11 1007.2 1004.7 7.4
15/12:00am 17.5 16.7 17.2 98 0.2 ENE 17 22 9 12 1007.3 1004.8 7.4
 
Date/Time
EDT
Temp
°C
App
Temp
°C
Dew
Point
°C
Rel
Hum
%
Delta-T
°C
Wind Press
QNH
hPa
Press
MSL
hPa
Rain since
9am
mm
Dir  Spd
km/h
Gust
km/h
Spd
kts
Gust
kts
14/11:30pm 17.5 17.8 16.9 96 0.4 NE 11 17 6 9 1007.4 1004.9 7.4
14/11:00pm 17.8 16.9 16.8 94 0.6 ENE 17 22 9 12 1007.8 1005.4 7.4
14/10:30pm 17.6 16.9 16.5 93 0.7 ENE 15 19 8 10 1007.9 1005.5 7.4
14/10:29pm 17.6 16.9 16.5 93 0.7 ENE 15 20 8 11 1007.9 1005.5 7.4
14/10:00pm 17.6 15.8 16.1 91 0.9 ENE 20 28 11 15 1008.0 1005.6 7.4
14/09:30pm 17.1 14.8 15.6 91 0.9 E 22 32 12 17 1007.6 1005.2 7.4
14/09:00pm 17.7 14.6 15.7 88 1.2 E 26 33 14 18 1007.2 1004.7 7.4
14/08:30pm 16.9 14.2 14.7 87 1.3 ENE 22 32 12 17 1006.7 1004.2 7.4
14/08:00pm 17.3 15.3 15.5 89 1.1 NE 20 32 11 17 1006.3 1003.9 7.4
14/07:30pm 16.1 12.5 13.0 82 1.8 ENE 24 35 13 19 1006.3 1003.9 7.4
14/07:22pm 16.0 10.8 12.9 82 1.8 ENE 32 50 17 27 1006.4 1004.0 7.4
14/07:00pm 18.4 15.0 14.7 79 2.2 ENE 26 33 14 18 1005.7 1003.2 7.2
14/06:30pm 19.4 17.7 16.2 82 2.0 ENE 20 30 11 16 1005.4 1002.9 7.0
14/06:00pm 20.2 17.1 15.6 75 2.8 ENE 26 35 14 19 1005.5 1003.0 6.8
14/05:30pm 20.4 18.1 15.8 75 2.8 ENE 22 33 12 18 1005.4 1002.9 6.8
14/05:00pm 20.9 19.5 16.5 76 2.7 ENE 19 26 10 14 1005.0 1002.5 6.6
14/04:30pm 21.9 20.9 16.6 72 3.3 E 17 30 9 16 1004.1 1001.6 6.6
14/04:00pm 21.7 18.1 15.3 67 3.9 NE 28 39 15 21 1004.6 1002.1 6.6
14/03:53pm 21.5 17.5 15.1 67 3.9 NE 30 48 16 26 1004.6 1002.1 6.6
14/03:30pm 22.3 18.5 16.8 71 3.5 ENE 32 41 17 22 1003.6 1001.1 6.6
14/03:00pm 22.6 20.0 17.7 74 3.1 E 28 39 15 21 1003.4 1000.8 6.6
14/02:30pm 22.3 20.1 17.0 72 3.3 E 24 32 13 17 1003.9 1001.4 6.6
14/02:00pm 21.3 19.9 17.1 77 2.6 ESE 20 26 11 14 1005.1 1002.6 6.6
14/01:53pm 20.5 19.0 16.7 79 2.4 ESE 20 28 11 15 1005.0 1002.5 6.6
14/01:30pm 21.5 19.5 17.5 78 2.5 ESE 24 33 13 18 1005.0 1002.5 6.6
14/01:24pm 21.5 19.7 17.9 80 2.3 ESE 24 32 13 17 1005.0 1002.5 6.6
14/01:00pm 19.6 18.9 15.5 77 2.5 SE 13 15 7 8 1005.1 1002.6 6.6
14/12:30pm 17.6 15.9 15.8 89 1.1 SE 19 24 10 13 1005.0 1002.5 6.6
14/12:12pm 16.8 16.0 15.0 89 1.1 ESE 13 17 7 9 1005.1 1002.6 6.6
14/12:00pm 15.9 13.7 14.3 90 0.9 E 19 28 10 15 1005.9 1003.4 6.4
14/11:39am 18.3 18.0 16.5 89 1.1 NE 13 22 7 12 1006.2 1003.8 1.8
14/11:30am 18.7 18.9 16.7 88 1.2 NE 11 17 6 9 1005.7 1003.2 0.4
14/11:03am 19.1 18.3 16.1 83 1.8 ENE 15 22 8 12 1005.5 1003.0 0.0
14/11:00am 19.1 18.0 16.3 84 1.7 ENE 17 24 9 13 1005.6 1003.1 0.0
14/10:30am 19.7 18.0 16.3 81 2.1 E 20 26 11 14 1005.3 1002.8 0.0
14/10:00am 19.3 17.9 16.5 84 1.7 E 19 24 10 13 1004.7 1002.2 0.0
14/09:30am 19.4 17.8 17.4 88 1.3 ENE 22 32 12 17 1004.7 1002.2 0.0
14/09:00am 18.4 16.8 16.4 88 1.2 ENE 20 30 11 16 1004.4 1001.9 29.4
14/08:30am 17.9 16.4 16.4 91 0.9 ENE 19 24 10 13 1004.1 1001.6 29.4
14/08:00am 17.3 16.7 16.7 96 0.4 ENE 15 22 8 12 1004.2 1001.7 29.4
14/07:30am 16.5 16.1 16.2 98 0.2 NE 13 17 7 9 1004.1 1001.6 29.4
14/07:00am 16.3 16.1 15.8 97 0.3 NE 11 15 6 8 1003.9 1001.4 29.4
14/06:30am 16.3 17.2 15.2 93 0.7 ENE 4 11 2 6 1003.5 1001.0 29.4
14/06:00am 16.2 17.5 15.1 93 0.7 E 2 6 1 3 1002.7 1000.2 29.2
14/05:30am 16.2 15.8 15.2 94 0.6 E 11 15 6 8 1002.1 999.6 29.2
14/05:00am 16.1 16.1 15.3 95 0.5 ENE 9 15 5 8 1002.4 999.9 29.2
14/04:30am 15.8 16.7 15.2 96 0.4 E 4 9 2 5 1002.3 999.8 29.2
14/04:00am 15.7 16.3 15.2 97 0.3 NE 6 9 3 5 1002.5 1000.0 29.2
14/03:30am 15.7 16.3 15.2 97 0.3 ENE 6 9 3 5 1002.5 1000.0 29.2
14/03:11am 15.7 17.4 15.2 97 0.3 CALM 0 0 0 0 1002.6 1000.1 29.2
14/03:00am 15.6 17.3 15.1 97 0.3 CALM 0 0 0 0 1002.4 999.9 29.2

Latest Capital City Observations: Canberra | Sydney | Melbourne | Brisbane | Adelaide | Perth | Hobart | Darwin

Other Formats:

Comma delimited format used in spreadsheet applications
http://www.bom.gov.au/fwo/IDN60903/IDN60903.95716.axf

JavaScript Object Notation format (JSON) in row-major order
http://www.bom.gov.au/fwo/IDN60903/IDN60903.95716.json